Time;durP1;ratioP1;P1;durP2;ratioP2;P2;SDS_P1;SDS_P2;PMS_P1;PMS_P2;Temp;Humidity;BMP_temperature;BMP_pressure;BME280_temperature;BME280_humidity;BME280_pressure;Samples;Min_cycle;Max_cycle;Signal;HPM_P1;HPM_P2
2023/01/16 00:01:19;;;;;;;2.65;0.90;;;;;;;5.26;100.00;99478.88;6249646;28;20417;-69
2023/01/16 00:04:20;;;;;;;1.38;0.38;;;;;;;5.21;100.00;99471.28;6249518;28;20049;-69
2023/01/16 00:07:22;;;;;;;1.40;0.60;;;;;;;5.20;100.00;99468.78;6248683;28;20053;-69
2023/01/16 00:10:24;;;;;;;0.63;0.40;;;;;;;5.17;100.00;99466.31;6249312;28;20049;-69
2023/01/16 00:13:26;;;;;;;0.50;0.38;;;;;;;5.11;100.00;99462.28;6249308;28;20456;-69
2023/01/16 00:16:27;;;;;;;2.58;0.75;;;;;;;5.17;100.00;99451.53;6249218;28;20053;-69
2023/01/16 00:19:28;;;;;;;2.90;0.50;;;;;;;5.16;100.00;99455.06;6249130;28;20061;-69
2023/01/16 00:22:30;;;;;;;2.35;0.63;;;;;;;5.16;100.00;99454.22;6249112;28;20045;-69
2023/01/16 00:25:32;;;;;;;4.03;0.47;;;;;;;5.16;100.00;99449.03;6248988;28;20053;-69
2023/01/16 00:28:34;;;;;;;6.18;0.90;;;;;;;5.14;100.00;99443.06;6248917;28;20429;-69
2023/01/16 00:31:35;;;;;;;1.55;0.47;;;;;;;5.13;100.00;99438.75;6248993;28;20053;-69
2023/01/16 00:34:36;;;;;;;0.43;0.30;;;;;;;5.13;100.00;99431.78;6248874;28;20493;-69
2023/01/16 00:37:38;;;;;;;2.00;0.40;;;;;;;5.10;100.00;99447.59;6248821;28;20045;-69
2023/01/16 00:40:40;;;;;;;0.25;0.25;;;;;;;5.09;100.00;99432.88;6248438;28;20057;-69
2023/01/16 00:43:42;;;;;;;0.50;0.50;;;;;;;5.06;100.00;99435.63;6248558;28;20046;-69
2023/01/16 00:46:43;;;;;;;2.05;0.90;;;;;;;5.15;100.00;99434.31;6248512;28;20056;-69
2023/01/16 00:49:45;;;;;;;2.33;0.60;;;;;;;5.10;100.00;99424.16;6248453;28;20045;-69
2023/01/16 00:52:46;;;;;;;2.83;0.50;;;;;;;5.09;100.00;99425.91;6248241;28;20056;-69
2023/01/16 00:55:51;;;;;;;1.13;0.52;;;;;;;5.06;100.00;99417.41;6248293;28;20045;-69
2023/01/16 00:58:52;;;;;;;3.78;0.60;;;;;;;4.99;100.00;99406.47;6248246;28;20063;-69
2023/01/16 01:01:53;;;;;;;5.97;0.50;;;;;;;4.92;100.00;99402.50;6248285;28;20056;-69
2023/01/16 01:04:55;;;;;;;0.52;0.35;;;;;;;4.94;100.00;99392.00;6247957;28;20516;-69
2023/01/16 01:07:56;;;;;;;5.80;0.70;;;;;;;4.84;100.00;99384.69;6248198;28;20063;-69
2023/01/16 01:11:06;;;;;;;3.78;0.52;;;;;;;4.85;100.00;99382.91;6247841;28;20416;-69
2023/01/16 01:14:07;;;;;;;0.88;0.82;;;;;;;4.85;100.00;99382.91;6247918;28;20056;-69
2023/01/16 01:17:09;;;;;;;1.15;0.40;;;;;;;4.80;100.00;99370.13;6247250;28;20060;-69
2023/01/16 01:20:11;;;;;;;3.25;0.93;;;;;;;4.78;100.00;99364.19;6247302;28;20501;-69
2023/01/16 01:23:13;;;;;;;3.10;0.52;;;;;;;4.83;100.00;99370.00;6247727;28;20492;-69
2023/01/16 01:26:17;;;;;;;3.67;0.77;;;;;;;4.74;100.00;99360.06;6247534;28;20046;-69
2023/01/16 01:29:18;;;;;;;1.65;0.70;;;;;;;4.65;100.00;99364.91;6247606;28;20049;-69
2023/01/16 01:32:19;;;;;;;1.48;0.30;;;;;;;4.70;100.00;99355.09;6247401;28;20137;-69
2023/01/16 01:35:21;;;;;;;1.00;0.52;;;;;;;4.64;100.00;99345.84;6247269;28;20056;-69
2023/01/16 01:38:22;;;;;;;0.45;0.30;;;;;;;4.60;100.00;99335.69;6247339;28;20052;-69
2023/01/16 01:41:25;;;;;;;3.40;0.57;;;;;;;4.60;100.00;99333.91;6247341;28;20057;-69
2023/01/16 01:44:57;;;;;;;0.65;0.50;;;;;;;4.54;100.00;99332.47;6247322;28;20052;-69
2023/01/16 01:48:05;;;;;;;0.68;0.30;;;;;;;4.48;100.00;99324.97;6147531;28;20191;-69
2023/01/16 01:51:11;;;;;;;0.30;0.30;;;;;;;4.49;100.00;99320.59;6246672;28;20056;-69
2023/01/16 01:54:16;;;;;;;0.93;0.32;;;;;;;4.47;100.00;99322.44;6246989;28;20050;-69
2023/01/16 01:57:23;;;;;;;5.05;0.68;;;;;;;4.46;100.00;99323.38;6247059;28;20504;-69
2023/01/16 02:00:27;;;;;;;0.20;0.20;;;;;;;4.37;100.00;99310.84;6246900;28;20046;-69
2023/01/16 02:03:33;;;;;;;0.35;0.20;;;;;;;4.33;100.00;99321.41;6246969;28;20057;-69
2023/01/16 02:06:41;;;;;;;2.83;0.40;;;;;;;4.39;100.00;99311.59;6246655;28;20635;-69
2023/01/16 02:09:43;;;;;;;2.65;0.68;;;;;;;4.33;100.00;99304.94;6246541;28;20060;-69
2023/01/16 02:12:45;;;;;;;4.32;0.70;;;;;;;4.27;100.00;99298.31;6247013;28;20053;-69
2023/01/16 02:19:17;;;;;;;1.05;0.38;;;;;;;4.28;100.00;99292.19;6246583;28;20107;-69
2023/01/16 02:22:40;;;;;;;2.17;0.70;;;;;;;4.36;100.00;99280.53;6246438;28;20053;-69
2023/01/16 02:26:15;;;;;;;0.82;0.22;;;;;;;4.27;100.00;99285.31;6246500;28;20060;-69
2023/01/16 02:29:35;;;;;;;2.05;0.38;;;;;;;4.27;100.00;99280.09;6249944;28;20054;-69
2023/01/16 02:32:52;;;;;;;4.95;0.40;;;;;;;4.32;100.00;99278.13;6254597;28;20064;-69
2023/01/16 02:36:04;;;;;;;4.07;0.63;;;;;;;4.30;100.00;99269.53;6254490;28;20053;-69
2023/01/16 02:39:18;;;;;;;0.65;0.57;;;;;;;4.28;100.00;99266.19;6254507;28;20418;-69
2023/01/16 02:42:27;;;;;;;4.68;0.17;;;;;;;4.29;100.00;99260.06;6254486;28;20049;-69
2023/01/16 02:45:35;;;;;;;5.63;0.65;;;;;;;4.29;100.00;99252.25;6254316;28;20053;-69
2023/01/16 02:48:44;;;;;;;1.55;0.40;;;;;;;4.31;100.00;99242.63;6254616;28;20056;-69
2023/01/16 02:51:55;;;;;;;9.45;0.65;;;;;;;4.31;100.00;99241.75;6254187;28;20049;-69
2023/01/16 02:55:00;;;;;;;0.20;0.20;;;;;;;4.33;100.00;99239.94;6254492;28;20048;-69
2023/01/16 02:58:05;;;;;;;0.30;0.30;;;;;;;4.37;100.00;99225.88;6254262;28;20056;-69
2023/01/16 03:01:07;;;;;;;0.90;0.68;;;;;;;4.36;100.00;99224.19;6254253;28;20053;-69
2023/01/16 03:04:50;;;;;;;2.88;0.15;;;;;;;4.35;100.00;99217.28;6254221;28;20068;-69
2023/01/16 03:08:12;;;;;;;2.95;0.43;;;;;;;4.37;100.00;99214.63;6218200;28;20045;-69
2023/01/16 03:11:22;;;;;;;5.63;0.50;;;;;;;4.42;100.00;99202.22;6254257;28;20049;-69
2023/01/16 03:14:38;;;;;;;2.38;0.38;;;;;;;4.45;100.00;99202.03;6254079;28;20068;-69
2023/01/16 03:17:51;;;;;;;4.85;0.68;;;;;;;4.47;100.00;99195.84;6254264;28;20053;-69
2023/01/16 03:21:01;;;;;;;2.30;0.43;;;;;;;4.52;100.00;99188.63;6253929;28;20421;-69
2023/01/16 03:24:13;;;;;;;0.28;0.28;;;;;;;4.53;100.00;99186.84;6254127;28;20049;-69
2023/01/16 03:27:28;;;;;;;0.15;0.15;;;;;;;4.55;100.00;99185.88;6254016;28;20046;-70
2023/01/16 03:30:37;;;;;;;1.88;0.40;;;;;;;4.52;100.00;99178.22;6254061;28;20056;-70
2023/01/16 03:33:47;;;;;;;1.15;0.35;;;;;;;4.56;100.00;99177.13;6253866;28;20420;-70
2023/01/16 03:36:56;;;;;;;0.45;0.20;;;;;;;4.60;100.00;99170.00;6253877;28;20041;-70
2023/01/16 03:40:03;;;;;;;0.20;0.20;;;;;;;4.59;100.00;99160.53;6251903;28;20065;-70
2023/01/16 03:43:08;;;;;;;0.30;0.20;;;;;;;4.58;100.00;99149.25;6249698;28;20292;-70
2023/01/16 03:46:15;;;;;;;0.55;0.20;;;;;;;4.58;100.00;99156.22;6250198;28;20643;-70
2023/01/16 03:49:20;;;;;;;0.35;0.05;;;;;;;4.58;100.00;99140.63;6249729;28;20048;-70
2023/01/16 03:52:27;;;;;;;0.08;0.08;;;;;;;4.59;100.00;99142.31;6249973;28;20057;-70
2023/01/16 03:55:35;;;;;;;0.82;0.38;;;;;;;4.58;100.00;99136.25;6249764;28;20047;-70
2023/01/16 03:58:40;;;;;;;0.43;0.30;;;;;;;4.58;100.00;99131.06;6250055;28;20061;-70
2023/01/16 04:01:47;;;;;;;3.30;0.20;;;;;;;4.55;100.00;99135.59;6249423;28;20409;-70
2023/01/16 04:04:53;;;;;;;2.53;0.38;;;;;;;4.54;100.00;99126.97;6249479;28;20050;-70
2023/01/16 04:07:58;;;;;;;0.50;0.40;;;;;;;4.51;100.00;99127.13;6249616;28;20056;-70
2023/01/16 04:11:01;;;;;;;0.20;0.20;;;;;;;4.46;100.00;99112.69;6249223;28;20054;-70
2023/01/16 04:14:04;;;;;;;1.02;0.50;;;;;;;4.43;100.00;99123.25;6249139;28;20049;-70
2023/01/16 04:17:07;;;;;;;0.20;0.20;;;;;;;4.38;100.00;99115.72;6249177;28;20057;-70
2023/01/16 04:20:10;;;;;;;2.20;0.40;;;;;;;4.43;100.00;99107.66;6249084;28;20049;-70
2023/01/16 04:23:12;;;;;;;0.20;0.20;;;;;;;4.31;100.00;99106.53;6249147;28;20045;-70
2023/01/16 04:26:15;;;;;;;0.85;0.60;;;;;;;4.31;100.00;99093.53;6249191;28;20049;-70
2023/01/16 04:29:16;;;;;;;0.60;0.32;;;;;;;4.26;100.00;99092.97;6248947;28;20060;-70
2023/01/16 04:32:18;;;;;;;0.30;0.30;;;;;;;4.22;100.00;99081.03;6248869;28;20053;-69
2023/01/16 04:35:20;;;;;;;0.20;0.20;;;;;;;4.17;100.00;99086.50;6248687;28;20057;-70
2023/01/16 04:38:21;;;;;;;1.33;0.20;;;;;;;4.14;100.00;99088.44;6248907;28;20486;-69
2023/01/16 04:41:40;;;;;;;0.85;0.30;;;;;;;4.13;100.00;99071.13;6248406;28;20061;-70
2023/01/16 04:44:41;;;;;;;0.40;0.25;;;;;;;4.08;100.00;99068.78;6248732;28;20048;-70
2023/01/16 04:47:46;;;;;;;2.08;0.47;;;;;;;4.04;100.00;99064.66;6248499;28;20048;-70
2023/01/16 04:50:49;;;;;;;0.10;0.10;;;;;;;4.01;100.00;99063.09;6248275;28;20054;-70
2023/01/16 04:53:51;;;;;;;0.30;0.30;;;;;;;4.03;100.00;99066.44;6248151;28;20053;-70
2023/01/16 04:56:53;;;;;;;2.03;0.43;;;;;;;4.02;100.00;99053.53;6248653;28;20045;-70
2023/01/16 04:59:55;;;;;;;0.50;0.40;;;;;;;4.02;100.00;99040.53;6248157;28;20477;-70
2023/01/16 05:02:56;;;;;;;2.42;0.28;;;;;;;3.98;100.00;99042.47;6248122;28;20060;-70
2023/01/16 05:05:57;;;;;;;0.68;0.30;;;;;;;3.91;100.00;99040.28;6248194;28;20053;-69
2023/01/16 05:08:59;;;;;;;0.28;0.22;;;;;;;3.87;100.00;99039.59;6247989;28;20060;-70
2023/01/16 05:12:01;;;;;;;0.93;0.32;;;;;;;3.90;100.00;99039.41;6248067;28;20511;-69
2023/01/16 05:15:03;;;;;;;2.45;0.40;;;;;;;3.88;100.00;99030.03;6247713;28;20054;-70
2023/01/16 05:18:05;;;;;;;0.17;0.17;;;;;;;3.91;100.00;99017.75;6247985;28;20056;-71
2023/01/16 05:21:06;;;;;;;1.65;0.30;;;;;;;3.93;100.00;99028.03;6247644;28;20060;-70
2023/01/16 05:24:08;;;;;;;0.93;0.30;;;;;;;3.90;100.00;99021.22;6247991;28;20053;-70
2023/01/16 05:27:10;;;;;;;2.97;0.50;;;;;;;3.93;100.00;99017.66;6247805;28;20049;-70
2023/01/16 05:30:13;;;;;;;0.85;0.40;;;;;;;3.91;100.00;99020.34;6247350;28;20049;-70
2023/01/16 05:33:14;;;;;;;0.80;0.52;;;;;;;3.95;100.00;99003.66;6247698;28;20049;-69
2023/01/16 05:36:16;;;;;;;0.52;0.35;;;;;;;3.96;100.00;99007.94;6247253;28;20045;-70
2023/01/16 05:39:17;;;;;;;1.55;0.32;;;;;;;3.97;100.00;98993.16;6247413;28;20050;-70
2023/01/16 05:42:21;;;;;;;0.20;0.20;;;;;;;3.97;100.00;99001.81;6247180;28;20058;-69
2023/01/16 05:45:23;;;;;;;0.17;0.17;;;;;;;3.98;100.00;98994.84;6247179;28;20092;-70
2023/01/16 05:48:24;;;;;;;0.47;0.20;;;;;;;3.96;100.00;98986.31;6247109;28;20049;-70
2023/01/16 05:51:25;;;;;;;2.92;0.52;;;;;;;3.98;100.00;98972.28;6246947;28;20057;-70
2023/01/16 05:54:27;;;;;;;0.30;0.30;;;;;;;4.04;100.00;98969.38;6247018;28;20049;-70
2023/01/16 05:57:30;;;;;;;1.45;0.50;;;;;;;3.99;100.00;98975.72;6247259;28;20049;-70
2023/01/16 06:00:31;;;;;;;0.20;0.20;;;;;;;4.00;100.00;98967.84;6246779;28;20045;-70
2023/01/16 06:03:32;;;;;;;0.45;0.28;;;;;;;3.91;100.00;98962.34;6246661;28;20228;-70
2023/01/16 06:06:34;;;;;;;0.30;0.25;;;;;;;3.90;100.00;98966.66;6246927;28;20049;-70
2023/01/16 06:09:35;;;;;;;4.03;0.60;;;;;;;3.96;100.00;98960.31;6246692;28;20524;-70
2023/01/16 06:12:38;;;;;;;1.17;0.40;;;;;;;3.91;100.00;98960.56;6246836;28;20052;-70
2023/01/16 06:15:39;;;;;;;0.65;0.40;;;;;;;3.87;100.00;98942.63;6246300;28;20425;-69
2023/01/16 06:18:40;;;;;;;0.20;0.20;;;;;;;3.84;100.00;98935.84;6246773;28;20615;-69
2023/01/16 06:21:42;;;;;;;0.45;0.30;;;;;;;3.84;100.00;98922.84;6246413;28;20064;-69
2023/01/16 06:24:43;;;;;;;0.68;0.40;;;;;;;3.81;100.00;98923.88;6246383;28;20413;-70
2023/01/16 06:27:49;;;;;;;1.30;0.50;;;;;;;3.79;100.00;98917.91;6246667;28;20057;-70
2023/01/16 06:30:52;;;;;;;2.60;0.63;;;;;;;3.76;100.00;98918.06;6246485;28;20049;-69
2023/01/16 06:33:53;;;;;;;4.68;0.52;;;;;;;3.74;100.00;98913.88;6246165;28;20556;-69
2023/01/16 06:36:55;;;;;;;1.77;0.40;;;;;;;3.68;100.00;98907.28;6246585;28;20045;-69
2023/01/16 06:39:58;;;;;;;0.85;0.30;;;;;;;3.64;100.00;98900.56;6246210;28;20046;-69
2023/01/16 06:43:00;;;;;;;1.10;0.43;;;;;;;3.62;100.00;98891.16;6256516;28;20725;-69
2023/01/16 06:46:02;;;;;;;0.50;0.50;;;;;;;3.62;100.00;98879.00;6264014;28;20056;-69
2023/01/16 06:49:03;;;;;;;0.95;0.50;;;;;;;3.67;100.00;98876.16;6257379;28;20049;-70
2023/01/16 06:52:05;;;;;;;0.80;0.30;;;;;;;3.63;100.00;98878.09;6242452;28;20070;-70
2023/01/16 06:55:06;;;;;;;1.23;0.40;;;;;;;3.59;100.00;98875.75;6245987;28;20710;-69
2023/01/16 06:58:10;;;;;;;0.38;0.30;;;;;;;3.53;100.00;98880.34;6258368;28;20496;-70
2023/01/16 07:01:11;;;;;;;0.47;0.32;;;;;;;3.53;100.00;98882.13;6261488;28;20052;-69
2023/01/16 07:04:12;;;;;;;2.10;0.40;;;;;;;3.50;100.00;98870.16;6253184;28;20041;-69
2023/01/16 07:07:14;;;;;;;2.45;0.50;;;;;;;3.49;100.00;98865.84;6236900;28;20037;-69
2023/01/16 07:10:15;;;;;;;1.20;0.77;;;;;;;3.46;100.00;98870.41;6232642;28;20042;-69
2023/01/16 07:13:22;;;;;;;0.63;0.52;;;;;;;3.44;100.00;98869.63;6231652;28;20048;-70
2023/01/16 07:23:01;;;;;;;0.43;0.43;;;;;;;3.56;100.00;98843.84;6235815;28;20545;-70
2023/01/16 07:26:05;;;;;;;0.65;0.28;;;;;;;3.62;100.00;98832.25;6237497;28;20068;-70
2023/01/16 07:29:08;;;;;;;5.88;0.60;;;;;;;3.66;100.00;98832.94;6238783;28;20516;-70
2023/01/16 07:32:10;;;;;;;0.40;0.20;;;;;;;3.67;100.00;98832.84;6237782;28;20607;-70
2023/01/16 07:35:11;;;;;;;0.30;0.30;;;;;;;3.66;100.00;98830.34;6234730;28;20563;-70
2023/01/16 07:38:13;;;;;;;0.82;0.50;;;;;;;3.65;100.00;98820.88;6235298;28;20045;-70
2023/01/16 07:41:14;;;;;;;0.52;0.30;;;;;;;3.68;100.00;98815.50;6235193;28;20053;-69
2023/01/16 07:44:17;;;;;;;0.98;0.35;;;;;;;3.68;100.00;98805.09;6235035;28;20136;-70
2023/01/16 07:47:18;;;;;;;0.95;0.35;;;;;;;3.65;100.00;98805.31;6235196;28;20053;-69
2023/01/16 07:50:19;;;;;;;0.65;0.30;;;;;;;3.62;100.00;98806.28;6237217;28;20053;-70
2023/01/16 07:53:23;;;;;;;1.58;0.30;;;;;;;3.65;100.00;98794.91;6234912;28;20473;-69
2023/01/16 07:56:24;;;;;;;0.32;0.30;;;;;;;3.65;100.00;98782.75;6234850;28;20060;-69
2023/01/16 07:59:27;;;;;;;0.43;0.40;;;;;;;3.63;100.00;98775.97;6236511;28;20497;-70
2023/01/16 08:02:28;;;;;;;2.40;0.60;;;;;;;3.61;100.00;98776.06;6235461;28;20042;-70
2023/01/16 08:05:29;;;;;;;0.20;0.20;;;;;;;3.66;100.00;98763.66;6235773;28;20413;-70
2023/01/16 08:08:31;;;;;;;0.60;0.43;;;;;;;3.70;100.00;98762.53;6242028;28;20056;-70
2023/01/16 08:11:36;;;;;;;0.82;0.40;;;;;;;3.71;100.00;98755.59;6249260;28;20123;-70
2023/01/16 08:14:39;;;;;;;3.10;0.52;;;;;;;3.70;100.00;98749.56;6249592;28;20057;-70
2023/01/16 08:17:40;;;;;;;0.73;0.47;;;;;;;3.75;100.00;98736.31;6255325;28;20106;-70
2023/01/16 08:20:42;;;;;;;4.25;0.50;;;;;;;3.74;100.00;98721.66;6265639;28;20044;-70
2023/01/16 08:23:44;;;;;;;1.15;0.57;;;;;;;3.78;100.00;98729.19;6273839;28;20408;-69
2023/01/16 08:26:45;;;;;;;1.05;0.70;;;;;;;3.80;100.00;98718.69;6257325;28;20041;-70
2023/01/16 08:29:48;;;;;;;0.40;0.40;;;;;;;3.80;100.00;98721.28;6247049;28;20417;-71
2023/01/16 08:32:49;;;;;;;0.38;0.30;;;;;;;3.87;100.00;98719.19;6264624;28;20056;-70
2023/01/16 08:35:50;;;;;;;0.65;0.47;;;;;;;3.87;100.00;98712.22;6256103;28;20053;-70
2023/01/16 08:38:52;;;;;;;2.28;0.85;;;;;;;3.87;100.00;98709.63;6248972;28;20049;-70
2023/01/16 08:51:51;;;;;;;0.45;0.43;;;;;;;3.84;100.00;98686.41;6223997;28;20130;-70
2023/01/16 08:54:53;;;;;;;4.97;0.52;;;;;;;3.87;100.00;98677.63;6223671;28;20401;-70
2023/01/16 08:57:56;;;;;;;1.15;0.60;;;;;;;3.91;100.00;98669.53;6223762;28;20042;-70
2023/01/16 09:00:59;;;;;;;0.73;0.50;;;;;;;3.94;100.00;98671.94;6230019;28;20049;-70
2023/01/16 09:04:01;;;;;;;0.30;0.30;;;;;;;3.99;100.00;98664.69;6248320;28;20049;-70
2023/01/16 09:07:02;;;;;;;3.05;0.65;;;;;;;4.03;100.00;98657.56;6248275;28;20493;-71
2023/01/16 09:10:04;;;;;;;1.08;0.43;;;;;;;4.06;100.00;98658.22;6248025;28;20053;-70
2023/01/16 09:16:25;;;;;;;1.00;0.28;;;;;;;4.19;100.00;98639.28;6247956;28;20050;-70
2023/01/16 09:19:27;;;;;;;0.30;0.30;;;;;;;4.23;100.00;98636.41;6247706;28;20516;-70
2023/01/16 09:22:28;;;;;;;2.78;0.50;;;;;;;4.22;100.00;98637.31;6247998;28;20045;-70
2023/01/16 09:25:30;;;;;;;1.10;0.30;;;;;;;4.32;100.00;98629.81;6247552;28;20087;-70
2023/01/16 09:28:32;;;;;;;0.38;0.32;;;;;;;4.31;100.00;98622.91;6248191;28;20056;-71
2023/01/16 09:31:35;;;;;;;1.20;0.60;;;;;;;4.32;100.00;98619.41;6246996;28;20050;-70
2023/01/16 09:34:37;;;;;;;0.38;0.35;;;;;;;4.37;100.00;98617.34;6235014;28;20045;-71
2023/01/16 09:37:40;;;;;;;1.02;0.50;;;;;;;4.45;100.00;98604.72;6233735;28;20480;-72
2023/01/16 09:40:49;;;;;;;0.60;0.28;;;;;;;4.49;100.00;98600.97;6233102;28;20096;-72
2023/01/16 09:43:50;;;;;;;0.98;0.60;;;;;;;4.53;100.00;98589.44;6232197;28;20057;-71
2023/01/16 09:46:53;;;;;;;0.30;0.30;;;;;;;4.60;100.00;98583.88;6238002;28;20045;-71
2023/01/16 09:50:00;;;;;;;2.38;0.47;;;;;;;4.58;100.00;98578.75;6246976;28;20050;-71
2023/01/16 10:00:02;;;;;;;0.38;0.30;;;;;;;4.61;100.00;98544.75;6233758;28;20046;-72
2023/01/16 10:03:04;;;;;;;1.95;0.52;;;;;;;4.65;100.00;98541.03;6232212;28;20046;-71
2023/01/16 10:06:15;;;;;;;3.33;0.32;;;;;;;4.63;100.00;98526.44;6233673;28;20417;-71
2023/01/16 10:09:22;;;;;;;0.63;0.43;;;;;;;4.66;100.00;98526.25;6233672;28;20553;-71
2023/01/16 10:12:33;;;;;;;5.97;0.60;;;;;;;4.66;100.00;98521.88;6232144;28;20053;-71
2023/01/16 10:15:42;;;;;;;0.38;0.28;;;;;;;4.70;100.00;98506.91;6243646;28;20049;-71
2023/01/16 10:18:51;;;;;;;;;;;;;;;4.79;100.00;98495.88;6247145;28;20394;-71
2023/01/16 10:22:04;;;;;;;0.77;0.50;;;;;;;4.89;100.00;98496.94;6246660;28;19932;-72
2023/01/16 10:25:19;;;;;;;0.82;0.52;;;;;;;4.89;100.00;98483.94;6246621;28;20057;-71
2023/01/16 10:28:37;;;;;;;0.30;0.30;;;;;;;4.90;100.00;98483.00;6246830;28;20429;-70
2023/01/16 10:31:44;;;;;;;4.40;1.20;;;;;;;4.95;100.00;98464.47;6246504;28;20053;-71
2023/01/16 10:34:54;;;;;;;1.67;0.30;;;;;;;4.83;100.00;98442.72;6242675;28;20049;-70
2023/01/16 10:38:08;;;;;;;1.02;0.47;;;;;;;4.81;100.00;98439.38;6222126;28;20050;-72
2023/01/16 10:51:12;;;;;;;3.65;0.43;;;;;;;4.86;100.00;98415.63;6224854;28;20429;-71
2023/01/16 10:54:14;;;;;;;2.03;0.63;;;;;;;4.90;100.00;98410.13;6226730;28;20052;-71
2023/01/16 10:57:16;;;;;;;1.58;0.32;;;;;;;4.95;100.00;98402.88;6226593;28;20046;-69
2023/01/16 11:00:22;;;;;;;0.95;0.65;;;;;;;4.94;100.00;98382.97;6226429;28;20453;-70
2023/01/16 11:03:32;;;;;;;1.00;0.50;;;;;;;5.02;100.00;98370.25;6226496;28;20137;-72
2023/01/16 11:06:37;;;;;;;0.30;0.20;;;;;;;5.04;100.00;98365.78;6226574;28;20042;-73
2023/01/16 11:09:39;;;;;;;1.90;0.30;;;;;;;5.10;100.00;98356.72;6226625;28;20072;-72
2023/01/16 11:19:27;;;;;;;1.02;0.70;;;;;;;5.09;100.00;98313.41;6224875;28;20566;-73
2023/01/16 11:22:30;;;;;;;0.45;0.20;;;;;;;5.10;100.00;98307.25;6250424;28;20657;-73
2023/01/16 11:25:33;;;;;;;1.27;0.52;;;;;;;5.09;100.00;98303.00;6260338;28;20041;-73
2023/01/16 11:28:35;;;;;;;0.63;0.40;;;;;;;5.11;100.00;98293.31;6266688;28;20378;-72
2023/01/16 11:31:38;;;;;;;0.40;0.40;;;;;;;5.14;100.00;98285.28;6261885;28;20049;-70
2023/01/16 11:34:46;;;;;;;1.20;0.50;;;;;;;5.14;100.00;98269.66;6228695;28;20045;-72
2023/01/16 11:37:52;;;;;;;2.10;0.50;;;;;;;5.13;100.00;98264.53;6250604;28;20046;-72
2023/01/16 11:40:56;;;;;;;0.70;0.40;;;;;;;5.14;100.00;98250.63;6260095;28;20053;-73
2023/01/16 11:47:40;;;;;;;2.80;0.60;;;;;;;5.16;100.00;98233.94;6275023;28;20053;-70
2023/01/16 11:50:41;;;;;;;0.93;0.40;;;;;;;5.19;100.00;98233.72;6274478;28;20048;-72
2023/01/16 11:53:47;;;;;;;4.32;0.73;;;;;;;5.19;100.00;98227.69;6274333;28;20056;-72
2023/01/16 11:56:58;;;;;;;0.20;0.20;;;;;;;5.18;100.00;98212.97;6259306;28;20501;-72
2023/01/16 12:00:24;;;;;;;0.20;0.20;;;;;;;5.22;100.00;98212.69;6274265;28;20487;-72
2023/01/16 12:03:46;;;;;;;0.50;0.43;;;;;;;5.25;100.00;98196.81;6259318;28;20052;-73
2023/01/16 12:06:59;;;;;;;0.32;0.30;;;;;;;5.30;100.00;98191.28;6250991;28;20046;-73
2023/01/16 12:10:06;;;;;;;1.02;0.57;;;;;;;5.32;100.00;98184.19;6257467;28;20049;-72
2023/01/16 12:16:42;;;;;;;2.70;0.50;;;;;;;5.39;100.00;98166.34;6249496;28;20049;-72
2023/01/16 12:19:57;;;;;;;1.13;0.52;;;;;;;5.37;100.00;98155.22;6251913;28;20493;-72
2023/01/16 12:23:20;;;;;;;2.95;0.43;;;;;;;5.42;100.00;98145.28;6274056;28;20075;-71
2023/01/16 12:26:27;;;;;;;0.45;0.38;;;;;;;5.50;100.00;98143.78;6273873;28;20072;-72
2023/01/16 12:29:41;;;;;;;4.95;0.85;;;;;;;5.45;100.00;98126.81;6261673;28;20037;-72
2023/01/16 12:32:54;;;;;;;4.65;0.50;;;;;;;5.56;100.00;98119.03;6251293;28;20060;-72
2023/01/16 12:36:02;;;;;;;0.85;0.43;;;;;;;5.61;100.00;98119.53;6260447;28;20053;-72
2023/01/16 12:39:13;;;;;;;0.30;0.30;;;;;;;5.66;100.00;98108.75;6248913;28;20049;-72
2023/01/16 12:45:54;;;;;;;0.38;0.32;;;;;;;5.75;100.00;98092.41;6259309;28;20091;-71
2023/01/16 12:49:07;;;;;;;2.25;0.30;;;;;;;5.82;100.00;98084.03;6273275;28;20060;-72
2023/01/16 12:52:28;;;;;;;1.45;0.60;;;;;;;5.89;100.00;98078.34;6250473;28;20058;-72
2023/01/16 12:55:43;;;;;;;0.30;0.30;;;;;;;5.85;100.00;98073.34;6248507;28;20512;-72
2023/01/16 12:58:50;;;;;;;1.25;0.38;;;;;;;5.90;100.00;98067.78;6248501;28;20046;-72
2023/01/16 13:01:57;;;;;;;1.85;0.38;;;;;;;5.91;100.00;98059.03;6248007;28;20421;-72
2023/01/16 13:05:02;;;;;;;0.75;0.50;;;;;;;5.90;100.00;98049.53;6252447;28;20622;-72
2023/01/16 13:08:08;;;;;;;0.32;0.30;;;;;;;5.93;100.00;98044.13;6267835;28;20500;-72
2023/01/16 13:14:38;;;;;;;0.50;0.20;;;;;;;5.81;100.00;98029.41;6272542;28;20057;-72
2023/01/16 13:17:45;;;;;;;2.10;0.38;;;;;;;5.81;100.00;98030.25;6272715;28;20044;-70
2023/01/16 13:20:50;;;;;;;2.45;0.68;;;;;;;5.79;100.00;98028.69;6272393;28;20052;-72
2023/01/16 13:23:55;;;;;;;2.53;0.45;;;;;;;5.82;100.00;98020.66;6272601;28;20052;-72
2023/01/16 13:27:01;;;;;;;0.88;0.43;;;;;;;5.80;100.00;98027.75;6272888;28;20063;-72
2023/01/16 13:30:11;;;;;;;1.33;0.35;;;;;;;5.83;100.00;98023.13;6272349;28;20056;-72
2023/01/16 13:33:16;;;;;;;0.63;0.30;;;;;;;5.82;100.00;98016.28;6272237;28;20419;-71
2023/01/16 13:36:38;;;;;;;0.20;0.20;;;;;;;5.81;100.00;98022.44;6256475;28;20060;-71
2023/01/16 13:40:20;;;;;;;0.15;0.13;;;;;;;5.75;100.00;98019.47;6247308;28;20643;-71
2023/01/16 13:46:49;;;;;;;1.23;0.40;;;;;;;5.57;100.00;98019.91;6247488;28;20049;-72
2023/01/16 13:49:52;;;;;;;0.85;0.30;;;;;;;5.47;100.00;97998.13;6243330;28;20054;-72
2023/01/16 13:52:56;;;;;;;0.80;0.40;;;;;;;5.41;100.00;98003.81;6222946;28;20045;-72
2023/01/16 13:56:07;;;;;;;0.50;0.25;;;;;;;5.30;100.00;98001.19;6222472;28;20046;-72
2023/01/16 13:59:27;;;;;;;1.50;0.52;;;;;;;5.22;100.00;98001.78;6222571;28;20046;-70
2023/01/16 14:02:42;;;;;;;0.45;0.30;;;;;;;5.11;100.00;97996.56;6222491;28;20046;-72
2023/01/16 14:05:45;;;;;;;0.60;0.30;;;;;;;5.09;100.00;97998.47;6222423;28;20069;-73
2023/01/16 14:09:09;;;;;;;0.28;0.20;;;;;;;5.01;100.00;97987.78;6222512;28;20042;-70
2023/01/16 14:12:21;;;;;;;1.35;0.20;;;;;;;4.93;100.00;97979.72;6222500;28;20564;-70
2023/01/16 14:19:00;;;;;;;2.55;0.65;;;;;;;4.94;100.00;97957.94;6228107;28;20128;-73
2023/01/16 14:24:00;;;;;;;1.25;0.60;;;;;;;4.81;100.00;97948.47;6233836;28;20053;-73
2023/01/16 14:25:29;;;;;;;3.10;0.30;;;;;;;4.85;100.00;97936.03;6223789;28;20060;-73
2023/01/16 14:28:32;;;;;;;0.28;0.20;;;;;;;4.85;100.00;97928.25;6234619;28;20049;-73
2023/01/16 14:31:39;;;;;;;0.80;0.47;;;;;;;4.85;100.00;97933.44;6240165;28;20046;-71
2023/01/16 14:34:51;;;;;;;1.20;0.20;;;;;;;4.86;100.00;97932.53;6253400;28;20580;-72
2023/01/16 14:37:59;;;;;;;5.07;0.73;;;;;;;4.84;100.00;97922.22;6245305;28;20053;-71
2023/01/16 14:58:04;;;;;;;0.20;0.20;;;;;;;5.00;100.00;97893.28;6262590;28;20072;-71
2023/01/16 15:04:45;;;;;;;0.22;0.20;;;;;;;5.00;100.00;97875.06;6267680;28;20049;-71
2023/01/16 15:07:50;;;;;;;0.30;0.30;;;;;;;5.08;100.00;97877.88;6256800;28;20102;-70
2023/01/16 15:10:53;;;;;;;2.60;0.20;;;;;;;5.00;100.00;97877.66;6270678;28;20053;-71
2023/01/16 15:24:13;;;;;;;0.20;0.20;;;;;;;5.01;100.00;97848.06;6245927;28;20421;-72
2023/01/16 15:27:19;;;;;;;0.32;0.30;;;;;;;5.04;100.00;97844.38;6245896;28;20045;-70
2023/01/16 15:30:22;;;;;;;0.47;0.30;;;;;;;5.00;100.00;97837.78;6245769;28;20441;-70
2023/01/16 15:33:45;;;;;;;1.17;0.30;;;;;;;5.00;100.00;97838.63;6245994;28;20057;-70
2023/01/16 15:36:49;;;;;;;1.85;0.52;;;;;;;5.02;100.00;97833.28;6246766;28;20050;-71
2023/01/16 15:39:52;;;;;;;3.20;0.57;;;;;;;4.96;100.00;97826.78;6250082;28;20050;-70
2023/01/16 15:46:35;;;;;;;0.20;0.20;;;;;;;4.98;100.00;97832.69;6250103;28;20053;-70
2023/01/16 15:49:45;;;;;;;0.50;0.30;;;;;;;4.94;100.00;97835.66;6249934;28;20421;-70
2023/01/16 15:52:46;;;;;;;0.30;0.30;;;;;;;4.97;100.00;97825.00;6250217;28;20056;-70
2023/01/16 15:55:52;;;;;;;0.73;0.40;;;;;;;4.90;100.00;97827.25;6249829;28;20056;-70
2023/01/16 15:58:54;;;;;;;2.22;0.30;;;;;;;4.90;100.00;97818.63;6250052;28;20053;-71
2023/01/16 16:02:14;;;;;;;0.30;0.30;;;;;;;4.88;100.00;97815.31;6250715;28;20084;-71
2023/01/16 16:05:20;;;;;;;0.35;0.17;;;;;;;4.87;100.00;97809.28;6260619;28;20493;-71
2023/01/16 16:08:24;;;;;;;0.98;0.30;;;;;;;4.83;100.00;97811.28;6264897;28;20041;-71
2023/01/16 16:18:13;;;;;;;0.32;0.30;;;;;;;4.86;100.00;97792.03;6263002;28;20041;-71
2023/01/16 16:21:14;;;;;;;0.52;0.32;;;;;;;4.86;100.00;97784.22;6263631;28;20053;-71
2023/01/16 16:24:16;;;;;;;1.35;0.80;;;;;;;4.81;100.00;97781.97;6257459;28;20041;-71